createdAt,value
2023-02-11T00:00:00.742Z,73.02
2023-02-11T00:05:02.769Z,72.68
2023-02-11T00:10:07.978Z,73.16
2023-02-11T00:15:10.544Z,73.05
2023-02-11T00:20:12.390Z,73.11
2023-02-11T00:25:13.992Z,72.61
2023-02-11T00:30:16.638Z,74.19
2023-02-11T00:35:18.354Z,73.07
2023-02-11T00:40:20.184Z,72.94
2023-02-11T00:45:21.885Z,73.78
2023-02-11T00:50:24.019Z,73.93
2023-02-11T00:55:25.810Z,74.33
2023-02-11T01:00:28.025Z,73.06
2023-02-11T01:05:29.854Z,74.25
2023-02-11T01:10:31.816Z,74.01
2023-02-11T01:15:33.998Z,74.12
2023-02-11T01:20:35.755Z,74.24
2023-02-11T01:25:37.411Z,73.89
2023-02-11T01:30:39.454Z,74.05
2023-02-11T01:35:41.457Z,73.90
2023-02-11T01:41:04.115Z,73.53
2023-02-11T01:46:23.774Z,73.96
2023-02-11T01:51:31.285Z,73.88
2023-02-11T01:56:53.505Z,73.62
2023-02-11T02:02:02.077Z,73.55
2023-02-11T02:07:10.357Z,74.31
2023-02-11T02:12:12.127Z,73.62
2023-02-11T02:17:29.528Z,73.20
2023-02-11T02:23:03.955Z,73.76
2023-02-11T02:28:32.770Z,73.32
2023-02-11T02:33:42.473Z,74.30
2023-02-11T02:38:51.043Z,74.35
2023-02-11T02:43:53.547Z,74.48
2023-02-11T02:48:56.368Z,74.06
2023-02-11T02:53:57.945Z,74.75
2023-02-11T02:59:15.778Z,74.81
2023-02-11T03:04:21.030Z,74.93
2023-02-11T03:09:32.536Z,74.52
2023-02-11T03:14:36.501Z,75.21
2023-02-11T03:19:44.550Z,75.47
2023-02-11T03:24:46.967Z,75.27
2023-02-11T03:30:14.879Z,75.11
2023-02-11T03:35:38.307Z,74.87
2023-02-11T03:40:43.724Z,74.04
2023-02-11T03:45:48.507Z,74.16
2023-02-11T03:50:52.864Z,74.19
2023-02-11T03:55:57.394Z,74.86
2023-02-11T04:00:59.182Z,73.73
2023-02-11T04:06:00.921Z,74.15
2023-02-11T04:11:02.613Z,74.46
2023-02-11T04:16:04.433Z,74.07
2023-02-11T04:21:06.202Z,74.83
2023-02-11T04:26:07.853Z,74.44
2023-02-11T04:31:10.876Z,74.76
2023-02-11T04:36:12.991Z,74.51
2023-02-11T04:41:14.648Z,73.43
2023-02-11T04:46:16.376Z,73.69
2023-02-11T04:51:18.071Z,74.21
2023-02-11T04:56:19.836Z,73.62
2023-02-11T05:01:21.754Z,74.28
2023-02-11T05:06:23.425Z,74.32
2023-02-11T05:11:26.081Z,74.91
2023-02-11T05:16:28.207Z,74.88
2023-02-11T05:21:29.863Z,74.71
2023-02-11T05:26:32.498Z,74.25
2023-02-11T05:31:34.209Z,74.69
2023-02-11T05:36:36.021Z,74.94
2023-02-11T05:41:38.364Z,74.44
2023-02-11T05:46:40.095Z,74.54
2023-02-11T05:51:41.899Z,74.67
2023-02-11T05:56:44.963Z,75.03
2023-02-11T06:01:46.750Z,74.59
2023-02-11T06:06:48.386Z,74.92
2023-02-11T06:11:50.126Z,73.77
2023-02-11T06:16:51.878Z,74.17
2023-02-11T06:21:53.568Z,74.37
2023-02-11T06:26:55.353Z,74.16
2023-02-11T06:31:57.140Z,74.81
2023-02-11T06:36:58.996Z,74.64
2023-02-11T06:42:00.665Z,74.33
2023-02-11T06:47:02.432Z,74.83
2023-02-11T06:52:04.334Z,74.52
2023-02-11T06:57:06.052Z,75.35
2023-02-11T07:02:10.391Z,75.18
2023-02-11T07:07:12.116Z,75.64
2023-02-11T07:12:14.016Z,75.37
2023-02-11T07:17:16.047Z,75.32
2023-02-11T07:22:17.729Z,74.92
2023-02-11T07:27:19.402Z,75.17
2023-02-11T07:32:21.905Z,75.19
2023-02-11T07:37:23.615Z,75.27
2023-02-11T07:42:25.333Z,75.12
2023-02-11T07:47:27.180Z,74.46
2023-02-11T07:52:31.725Z,75.48
2023-02-11T07:57:33.463Z,75.36
2023-02-11T08:02:36.118Z,74.88
2023-02-11T08:07:37.935Z,75.46
2023-02-11T08:12:39.631Z,75.54
2023-02-11T08:17:41.343Z,74.19
2023-02-11T08:22:43.054Z,75.33
2023-02-11T08:27:44.825Z,74.34
2023-02-11T08:32:46.634Z,74.89
2023-02-11T08:37:48.325Z,74.89
2023-02-11T08:42:50.037Z,75.97
2023-02-11T08:47:52.858Z,75.23
2023-02-11T08:52:54.512Z,76.14
2023-02-11T08:57:56.910Z,74.86
2023-02-11T09:02:58.646Z,75.51
2023-02-11T09:08:00.373Z,74.29
2023-02-11T09:13:02.445Z,74.60
2023-02-11T09:18:05.431Z,75.03
2023-02-11T09:23:07.327Z,74.68
2023-02-11T09:28:09.773Z,74.14
2023-02-11T09:33:11.491Z,75.58
2023-02-11T09:38:13.219Z,75.30
2023-02-11T09:43:17.909Z,74.03
2023-02-11T09:48:22.546Z,74.99
2023-02-11T09:53:30.108Z,74.47
2023-02-11T09:58:35.666Z,73.93
2023-02-11T10:04:19.572Z,73.60
2023-02-11T10:09:24.034Z,73.44
2023-02-11T10:14:34.089Z,73.50
2023-02-11T10:20:04.698Z,73.20
2023-02-11T10:25:24.508Z,71.24
2023-02-11T10:30:32.990Z,70.97
2023-02-11T10:35:34.757Z,70.66
2023-02-11T10:40:36.432Z,70.45
2023-02-11T10:45:43.083Z,69.67
2023-02-11T10:50:45.009Z,70.39
2023-02-11T10:56:07.542Z,69.98
2023-02-11T11:01:23.527Z,66.59
2023-02-11T11:06:32.774Z,67.90
2023-02-11T11:11:51.406Z,66.62
2023-02-11T11:16:54.629Z,67.10
2023-02-11T11:21:56.796Z,64.88
2023-02-11T11:27:01.856Z,65.38
2023-02-11T11:32:11.678Z,66.90
2023-02-11T11:37:20.508Z,63.60
2023-02-11T11:42:26.680Z,64.44
2023-02-11T11:47:41.217Z,63.67
2023-02-11T11:53:00.286Z,63.93
2023-02-11T11:58:02.209Z,61.97
2023-02-11T12:03:33.182Z,61.18
2023-02-11T12:09:01.790Z,57.80
2023-02-11T12:14:36.988Z,58.50
2023-02-11T12:20:20.041Z,59.74
2023-02-11T12:25:37.201Z,62.72
2023-02-11T12:30:38.927Z,62.55
2023-02-11T12:36:08.603Z,59.21
2023-02-11T12:41:47.732Z,60.06
2023-02-11T12:47:14.321Z,56.94
2023-02-11T12:52:47.722Z,55.24
2023-02-11T12:57:52.552Z,57.08
2023-02-11T13:02:57.797Z,57.52
2023-02-11T13:08:33.026Z,54.97
2023-02-11T13:13:47.558Z,54.02
2023-02-11T13:18:57.646Z,54.46
2023-02-11T13:24:12.591Z,55.35
2023-02-11T13:29:34.754Z,59.46
2023-02-11T13:34:42.271Z,58.25
2023-02-11T13:39:58.675Z,59.63
2023-02-11T13:45:02.438Z,60.68
2023-02-11T13:50:07.858Z,57.80
2023-02-11T13:55:23.463Z,59.82
2023-02-11T14:00:37.430Z,60.44
2023-02-11T14:06:26.723Z,59.79
2023-02-11T14:11:35.857Z,61.73
2023-02-11T14:17:04.361Z,61.79
2023-02-11T14:22:13.593Z,63.07
2023-02-11T14:27:29.754Z,64.38
2023-02-11T14:32:47.883Z,63.97
2023-02-11T14:37:58.777Z,62.94
2023-02-11T14:43:16.775Z,62.60
2023-02-11T14:48:22.826Z,59.55
2023-02-11T14:53:26.731Z,63.18
2023-02-11T14:58:33.258Z,60.22
2023-02-11T15:03:40.394Z,58.89
2023-02-11T15:08:55.284Z,60.76
2023-02-11T15:14:01.156Z,60.10
2023-02-11T15:19:08.044Z,61.17
2023-02-11T15:24:31.454Z,62.15
2023-02-11T15:29:45.175Z,61.42
2023-02-11T15:34:51.183Z,60.45
2023-02-11T15:39:56.296Z,61.35
2023-02-11T15:45:17.183Z,63.88
2023-02-11T15:50:22.961Z,66.07
2023-02-11T15:55:27.637Z,63.42
2023-02-11T16:00:37.623Z,65.98
2023-02-11T16:05:41.757Z,65.91
2023-02-11T16:10:58.880Z,66.58
2023-02-11T16:16:19.044Z,67.15
2023-02-11T16:21:22.718Z,66.53
2023-02-11T16:26:33.812Z,67.00
2023-02-11T16:31:42.097Z,68.44
2023-02-11T16:36:45.412Z,68.72
2023-02-11T16:41:48.327Z,67.39
2023-02-11T16:46:51.515Z,68.82
2023-02-11T16:52:01.527Z,69.35
2023-02-11T16:57:20.878Z,70.16
2023-02-11T17:02:29.121Z,70.75
2023-02-11T17:07:31.604Z,70.57
2023-02-11T17:12:35.983Z,70.05
2023-02-11T17:17:40.059Z,71.26
2023-02-11T17:22:42.384Z,71.25
2023-02-11T17:27:45.723Z,72.33
2023-02-11T17:32:53.264Z,72.30
2023-02-11T17:37:55.871Z,72.72
2023-02-11T17:42:58.030Z,71.94
2023-02-11T17:48:02.279Z,71.24
2023-02-11T17:53:07.822Z,72.99
2023-02-11T17:58:11.720Z,73.63
2023-02-11T18:03:15.619Z,73.72
2023-02-11T18:08:18.346Z,73.57
2023-02-11T18:13:21.244Z,74.20
2023-02-11T18:18:24.092Z,74.04
2023-02-11T18:23:27.026Z,74.09
2023-02-11T18:28:29.854Z,74.32
2023-02-11T18:33:32.648Z,74.65
2023-02-11T18:38:38.754Z,74.51
2023-02-11T18:43:43.814Z,75.00
2023-02-11T18:48:46.819Z,75.77
2023-02-11T18:53:51.464Z,75.57
2023-02-11T18:58:58.957Z,75.83
2023-02-11T19:04:04.864Z,75.73
2023-02-11T19:09:11.870Z,75.23
2023-02-11T19:14:18.094Z,75.56
2023-02-11T19:19:24.516Z,73.18
2023-02-11T19:24:28.777Z,75.20
2023-02-11T19:29:35.936Z,74.93
2023-02-11T19:34:42.032Z,75.15
2023-02-11T19:39:45.006Z,75.55
2023-02-11T19:44:47.844Z,75.52
2023-02-11T19:49:50.900Z,75.67
2023-02-11T19:54:55.903Z,75.76
2023-02-11T19:59:59.557Z,76.69
2023-02-11T20:05:02.474Z,76.18
2023-02-11T20:10:07.460Z,76.37
2023-02-11T20:15:11.026Z,77.04
2023-02-11T20:20:13.799Z,76.37
2023-02-11T20:25:17.169Z,77.05
2023-02-11T20:30:20.042Z,77.84
2023-02-11T20:35:22.529Z,77.88
2023-02-11T20:40:25.538Z,77.71
2023-02-11T20:45:28.311Z,77.94
2023-02-11T20:50:32.059Z,77.92
2023-02-11T20:55:39.835Z,78.12
2023-02-11T21:00:42.603Z,78.44
2023-02-11T21:05:45.391Z,78.56
2023-02-11T21:10:50.320Z,78.53
2023-02-11T21:15:58.495Z,79.17
2023-02-11T21:21:02.182Z,78.66
2023-02-11T21:26:04.538Z,78.95
2023-02-11T21:31:07.131Z,79.52
2023-02-11T21:36:11.052Z,79.31
2023-02-11T21:41:13.796Z,79.46
2023-02-11T21:46:19.463Z,78.75
2023-02-11T21:51:26.596Z,78.59
2023-02-11T21:56:31.133Z,78.91
2023-02-11T22:01:35.724Z,78.75
2023-02-11T22:06:41.519Z,79.41
2023-02-11T22:11:43.684Z,79.60
2023-02-11T22:16:46.588Z,79.97
2023-02-11T22:21:48.358Z,80.31
2023-02-11T22:26:51.349Z,80.37
2023-02-11T22:31:53.178Z,79.97
2023-02-11T22:36:55.148Z,80.15
2023-02-11T22:41:57.580Z,80.40
2023-02-11T22:46:59.218Z,80.38
2023-02-11T22:52:00.947Z,80.23
2023-02-11T22:57:02.690Z,80.60
2023-02-11T23:02:04.493Z,80.57
2023-02-11T23:07:06.226Z,81.12
2023-02-11T23:12:07.927Z,80.93
2023-02-11T23:17:09.621Z,81.01
2023-02-11T23:22:11.333Z,80.74
2023-02-11T23:27:13.709Z,80.58
2023-02-11T23:32:15.518Z,81.29
2023-02-11T23:37:17.232Z,81.28
2023-02-11T23:42:18.895Z,81.10
2023-02-11T23:47:20.514Z,81.16
2023-02-11T23:52:22.223Z,80.33
2023-02-11T23:57:23.895Z,80.94
